Share

Le Grand, IA (50142)

Marshalltown Municipal (KMIW) Elev 971 ft | 42.11 °N, 92.92 °W | Change Station

Current weather conditions updated 1 hour ago

Clear
Clear
49 °F
Feels Like 49 °F
N
8
Wind Variable Wind from ESE
Sunrise 6:25 AM
Sunset 7:55 PM
Moon Waning Gibbous

Tomorrow is forecast to be Much Warmer than today.

Pressure 30.21 in
Visibility 10.0 miles
Clouds Clear
Dew Point 30 °F
Humidity 48%
Rainfall 0.00 in
Snow Depth Not available.
UV 0 out of 16
Pollen 9.70 out of 12
Air Quality Not available.
Flu Activity Sporadic
METAR KMIW 190153Z AUTO 11007KT 10SM CLR 09/M01 A3019 RMK AO2 SLP229 T00941011

More Conditions Fewer Conditions

Pressure 30.21 in
Visibility 10.0 miles
Clouds Clear
Dew Point 30 °F
Humidity 48%
Rainfall 0.00 in
Snow Depth Not available.
UV 0 out of 16
Pollen 9.70 out of 12
Air Quality Not available.
Flu Activity Sporadic
METAR KMIW 190153Z AUTO 11007KT 10SM CLR 09/M01 A3019 RMK AO2 SLP229 T00941011

More Conditions Fewer Conditions

10-Day Weather Forecast

Almanac

Astronomy

Apr. 18, 2014 Rise Set
Actual Time 6:25 AM CDT 7:55 PM CDT
Civil Twilight 5:56 AM CDT 8:24 PM CDT
Nautical Twilight 5:21 AM CDT 9:00 PM CDT
Astronomical Twilight 4:44 AM CDT 9:37 PM CDT
Moon 11:43 PM CDT (4/18) 8:46 AM CDT (4/18)
Length of Visible Light 14h 28m
Length of Day
13h 29m
Tomorrow will be 2m 39s longer.
Waning Gibbous, 83% of the Moon is Illuminated
Today
Waning Gibbous
Apr 22
Last Quarter
Apr 29
New
May 6
First Quarter
May 14
Full

Today's Extremes

State Highs State Lows

Community

  • Sunset Silhouettes
    Sunset Silhouettes
  • FL sunset Perico Isle
    FL sunset Perico Isle
  • Cloudy spring view
    Cloudy spring view
  • Old barn
    Old barn
  • What's for Lunch?
    What's for Lunch?

WunderPhotos

Upload Photos

1,702,618 photos uploaded!

WunderBlogs® & News

Nearby

Snow Depth

Station Depth Elevation
No new snow has been reported.

Coastal Water Temperatures

Place Temperature
No Stations Reporting

Earthquake Activity

City Distance Mag. Time & Date
No recent earthquake activity has been reported nearby.
Minimum magnitude displayed is 2.5.

Nearby Weather Stations

Station Location Temp. Windchill Dew Point Humidity Wind Precip. Elev Updated Type
MesoWest TAMA1 , Tama, IA 53 °F - - - North  at  - 0.00 in / hr 829 ft 8:55 PM CDT MADIS
KB0MGH, Gladbrook, IA 48.7 °F 49 °F -3 °F 11% SSE  at  1.6 mph 0.00 in / hr 1010 ft 10:02 PM CDT Rapid Fire
Anderson Farms, Beaman, IA 50.5 °F - 30 °F 46% SE  at  7.0 mph 0.00 in / hr 1043 ft 9:53 PM CDT Normal
MesoWest LAMOI1 , Marshalltown, IA 53 °F - - - North  at  - 0.00 in / hr 937 ft 9:10 PM CDT MADIS
Grinnell Weather.com, Grinnell, IA 49.5 °F 49 °F 33 °F 52% ESE  at  3.5 mph 0.00 in / hr 1014 ft 10:02 PM CDT Rapid Fire
Traer, IA 46.7 °F 47 °F 33 °F 58% ESE  at  3.0 mph 0.00 in / hr 955 ft 10:02 PM CDT Normal

Show More Stations Show Fewer Stations

What do you think?

We're not finished. Please let us know what you like, what you don't like, and what you are still missing.